sensor_id;sensor_type;location;lat;lon;timestamp;pressure;altitude;pressure_sealevel;temperature;humidity
51289;BME280;37372;52.294;5.152;2023-07-31T00:01:27;100834.94;;;15.63;100.00
51289;BME280;37372;52.294;5.152;2023-07-31T00:04:00;100825.56;;;15.69;100.00
51289;BME280;37372;52.294;5.152;2023-07-31T00:06:28;100831.16;;;15.74;100.00
51289;BME280;37372;52.294;5.152;2023-07-31T00:09:20;100826.75;;;15.78;100.00
51289;BME280;37372;52.294;5.152;2023-07-31T00:11:46;100821.22;;;15.78;100.00
51289;BME280;37372;52.294;5.152;2023-07-31T00:14:11;100816.53;;;15.79;100.00
51289;BME280;37372;52.294;5.152;2023-07-31T00:16:36;100816.81;;;15.82;100.00
51289;BME280;37372;52.294;5.152;2023-07-31T00:19:02;100817.38;;;15.79;100.00
51289;BME280;37372;52.294;5.152;2023-07-31T00:21:27;100818.47;;;15.83;100.00
51289;BME280;37372;52.294;5.152;2023-07-31T00:24:02;100821.25;;;15.83;100.00
51289;BME280;37372;52.294;5.152;2023-07-31T00:26:46;100810.72;;;15.80;100.00
51289;BME280;37372;52.294;5.152;2023-07-31T00:29:12;100822.06;;;15.79;100.00
51289;BME280;37372;52.294;5.152;2023-07-31T00:31:47;100813.44;;;15.75;100.00
51289;BME280;37372;52.294;5.152;2023-07-31T00:34:16;100809.25;;;15.67;100.00
51289;BME280;37372;52.294;5.152;2023-07-31T00:36:47;100818.34;;;15.63;100.00
51289;BME280;37372;52.294;5.152;2023-07-31T00:39:15;100824.97;;;15.62;100.00
51289;BME280;37372;52.294;5.152;2023-07-31T00:41:40;100814.41;;;15.59;100.00
51289;BME280;37372;52.294;5.152;2023-07-31T00:44:15;100808.31;;;15.57;100.00
51289;BME280;37372;52.294;5.152;2023-07-31T00:46:41;100823.50;;;15.54;100.00
51289;BME280;37372;52.294;5.152;2023-07-31T00:49:10;100826.28;;;15.54;100.00
51289;BME280;37372;52.294;5.152;2023-07-31T00:51:36;100819.38;;;15.57;100.00
51289;BME280;37372;52.294;5.152;2023-07-31T00:54:24;100797.78;;;15.54;100.00
51289;BME280;37372;52.294;5.152;2023-07-31T00:56:51;100807.41;;;15.46;100.00
51289;BME280;37372;52.294;5.152;2023-07-31T00:59:21;100804.06;;;15.44;100.00
51289;BME280;37372;52.294;5.152;2023-07-31T01:01:47;100816.22;;;15.43;100.00
51289;BME280;37372;52.294;5.152;2023-07-31T01:04:16;100797.75;;;15.49;100.00
51289;BME280;37372;52.294;5.152;2023-07-31T01:07:14;100810.50;;;15.55;100.00
51289;BME280;37372;52.294;5.152;2023-07-31T01:09:49;100809.97;;;15.58;100.00
51289;BME280;37372;52.294;5.152;2023-07-31T01:12:22;100814.09;;;15.55;100.00
51289;BME280;37372;52.294;5.152;2023-07-31T01:15:09;100806.13;;;15.59;100.00
51289;BME280;37372;52.294;5.152;2023-07-31T01:17:43;100804.66;;;15.51;100.00
51289;BME280;37372;52.294;5.152;2023-07-31T01:20:24;100790.59;;;15.53;100.00
51289;BME280;37372;52.294;5.152;2023-07-31T01:23:22;100795.50;;;15.45;100.00
51289;BME280;37372;52.294;5.152;2023-07-31T01:26:17;100792.72;;;15.45;100.00
51289;BME280;37372;52.294;5.152;2023-07-31T01:28:58;100799.41;;;15.50;100.00
51289;BME280;37372;52.294;5.152;2023-07-31T01:31:37;100798.78;;;15.42;100.00
51289;BME280;37372;52.294;5.152;2023-07-31T01:34:09;100793.31;;;15.48;100.00
51289;BME280;37372;52.294;5.152;2023-07-31T01:36:47;100808.75;;;15.43;100.00
51289;BME280;37372;52.294;5.152;2023-07-31T01:39:20;100790.56;;;15.48;100.00
51289;BME280;37372;52.294;5.152;2023-07-31T01:41:46;100785.28;;;15.46;100.00
51289;BME280;37372;52.294;5.152;2023-07-31T01:44:20;100787.84;;;15.53;100.00
51289;BME280;37372;52.294;5.152;2023-07-31T01:46:46;100790.59;;;15.53;100.00
51289;BME280;37372;52.294;5.152;2023-07-31T01:49:16;100783.13;;;15.58;100.00
51289;BME280;37372;52.294;5.152;2023-07-31T01:51:44;100780.66;;;15.57;100.00
51289;BME280;37372;52.294;5.152;2023-07-31T01:54:13;100775.13;;;15.57;100.00
51289;BME280;37372;52.294;5.152;2023-07-31T01:56:51;100775.13;;;15.57;100.00
51289;BME280;37372;52.294;5.152;2023-07-31T01:59:17;100767.66;;;15.57;100.00
51289;BME280;37372;52.294;5.152;2023-07-31T02:01:45;100767.94;;;15.56;100.00
51289;BME280;37372;52.294;5.152;2023-07-31T02:04:31;100765.44;;;15.54;100.00
51289;BME280;37372;52.294;5.152;2023-07-31T02:06:57;100756.31;;;15.54;100.00
51289;BME280;37372;52.294;5.152;2023-07-31T02:09:28;100750.78;;;15.54;100.00
51289;BME280;37372;52.294;5.152;2023-07-31T02:11:57;100754.38;;;15.54;100.00
51289;BME280;37372;52.294;5.152;2023-07-31T02:14:25;100744.16;;;15.55;100.00
51289;BME280;37372;52.294;5.152;2023-07-31T02:16:55;100741.38;;;15.55;100.00
51289;BME280;37372;52.294;5.152;2023-07-31T02:19:33;100736.13;;;15.53;100.00
51289;BME280;37372;52.294;5.152;2023-07-31T02:21:59;100733.59;;;15.52;100.00
51289;BME280;37372;52.294;5.152;2023-07-31T02:24:30;100726.72;;;15.54;100.00
51289;BME280;37372;52.294;5.152;2023-07-31T02:26:57;100733.88;;;15.50;100.00
51289;BME280;37372;52.294;5.152;2023-07-31T02:29:45;100739.13;;;15.52;100.00
51289;BME280;37372;52.294;5.152;2023-07-31T02:32:11;100743.59;;;15.53;100.00
51289;BME280;37372;52.294;5.152;2023-07-31T02:34:36;100743.31;;;15.54;100.00
51289;BME280;37372;52.294;5.152;2023-07-31T02:37:02;100739.44;;;15.55;100.00
51289;BME280;37372;52.294;5.152;2023-07-31T02:39:31;100739.13;;;15.52;100.00
51289;BME280;37372;52.294;5.152;2023-07-31T02:41:57;100727.53;;;15.50;100.00
51289;BME280;37372;52.294;5.152;2023-07-31T02:44:22;100725.31;;;15.52;100.00
51289;BME280;37372;52.294;5.152;2023-07-31T02:46:48;100723.41;;;15.52;100.00
51289;BME280;37372;52.294;5.152;2023-07-31T02:52:12;100724.19;;;15.48;100.00
51289;BME280;37372;52.294;5.152;2023-07-31T02:54:37;100714.81;;;15.49;100.00
51289;BME280;37372;52.294;5.152;2023-07-31T02:57:03;100722.53;;;15.47;100.00
51289;BME280;37372;52.294;5.152;2023-07-31T02:59:33;100716.72;;;15.48;100.00
51289;BME280;37372;52.294;5.152;2023-07-31T03:01:59;100720.31;;;15.49;100.00
51289;BME280;37372;52.294;5.152;2023-07-31T03:04:37;100712.59;;;15.51;100.00
51289;BME280;37372;52.294;5.152;2023-07-31T03:07:04;100712.56;;;15.45;100.00
51289;BME280;37372;52.294;5.152;2023-07-31T03:09:39;100710.66;;;15.46;100.00
51289;BME280;37372;52.294;5.152;2023-07-31T03:12:05;100717.56;;;15.49;100.00
51289;BME280;37372;52.294;5.152;2023-07-31T03:14:42;100716.72;;;15.48;100.00
51289;BME280;37372;52.294;5.152;2023-07-31T03:17:08;100717.56;;;15.49;100.00
51289;BME280;37372;52.294;5.152;2023-07-31T03:19:37;100715.63;;;15.49;100.00
51289;BME280;37372;52.294;5.152;2023-07-31T03:22:10;100714.81;;;15.49;100.00
51289;BME280;37372;52.294;5.152;2023-07-31T03:24:42;100711.19;;;15.48;100.00
51289;BME280;37372;52.294;5.152;2023-07-31T03:27:07;100713.69;;;15.50;100.00
51289;BME280;37372;52.294;5.152;2023-07-31T03:29:33;100712.31;;;15.47;100.00
51289;BME280;37372;52.294;5.152;2023-07-31T03:31:58;100709.78;;;15.45;100.00
51289;BME280;37372;52.294;5.152;2023-07-31T03:34:47;100705.13;;;15.46;100.00
51289;BME280;37372;52.294;5.152;2023-07-31T03:37:39;100705.13;;;15.46;100.00
51289;BME280;37372;52.294;5.152;2023-07-31T03:40:08;100700.97;;;15.49;100.00
51289;BME280;37372;52.294;5.152;2023-07-31T03:42:35;100704.00;;;15.47;100.00
51289;BME280;37372;52.294;5.152;2023-07-31T03:45:00;100702.34;;;15.46;100.00
51289;BME280;37372;52.294;5.152;2023-07-31T03:47:31;100684.13;;;15.50;100.00
51289;BME280;37372;52.294;5.152;2023-07-31T03:49:57;100692.66;;;15.43;100.00
51289;BME280;37372;52.294;5.152;2023-07-31T03:52:22;100694.31;;;15.44;100.00
51289;BME280;37372;52.294;5.152;2023-07-31T03:54:47;100683.25;;;15.39;100.00
51289;BME280;37372;52.294;5.152;2023-07-31T03:57:13;100681.00;;;15.36;100.00
51289;BME280;37372;52.294;5.152;2023-07-31T03:59:55;100685.69;;;15.36;100.00
51289;BME280;37372;52.294;5.152;2023-07-31T04:02:20;100677.34;;;15.31;100.00
51289;BME280;37372;52.294;5.152;2023-07-31T04:05:16;100673.72;;;15.25;100.00
51289;BME280;37372;52.294;5.152;2023-07-31T04:07:42;100671.56;;;15.27;100.00
51289;BME280;37372;52.294;5.152;2023-07-31T04:10:07;100678.16;;;15.26;100.00
51289;BME280;37372;52.294;5.152;2023-07-31T04:12:42;100667.09;;;15.26;100.00
51289;BME280;37372;52.294;5.152;2023-07-31T04:15:14;100656.34;;;15.30;100.00
51289;BME280;37372;52.294;5.152;2023-07-31T04:17:59;100653.25;;;15.21;100.00
51289;BME280;37372;52.294;5.152;2023-07-31T04:20:25;100652.44;;;15.26;100.00
51289;BME280;37372;52.294;5.152;2023-07-31T04:22:50;100655.47;;;15.24;100.00
51289;BME280;37372;52.294;5.152;2023-07-31T04:25:15;100666.84;;;15.28;100.00
51289;BME280;37372;52.294;5.152;2023-07-31T04:27:41;100661.56;;;15.26;100.00
51289;BME280;37372;52.294;5.152;2023-07-31T04:30:10;100658.56;;;15.28;100.00
51289;BME280;37372;52.294;5.152;2023-07-31T04:32:35;100664.31;;;15.26;100.00
51289;BME280;37372;52.294;5.152;2023-07-31T04:35:03;100665.19;;;15.27;100.00
51289;BME280;37372;52.294;5.152;2023-07-31T04:37:37;100659.13;;;15.30;100.00
51289;BME280;37372;52.294;5.152;2023-07-31T04:40:07;100650.56;;;15.31;100.00
51289;BME280;37372;52.294;5.152;2023-07-31T04:42:37;100650.59;;;15.36;100.00
51289;BME280;37372;52.294;5.152;2023-07-31T04:45:02;100643.41;;;15.35;100.00
51289;BME280;37372;52.294;5.152;2023-07-31T04:47:28;100645.63;;;15.38;100.00
51289;BME280;37372;52.294;5.152;2023-07-31T04:49:56;100645.63;;;15.38;100.00
51289;BME280;37372;52.294;5.152;2023-07-31T04:52:22;100648.69;;;15.42;100.00
51289;BME280;37372;52.294;5.152;2023-07-31T04:54:54;100639.28;;;15.43;100.00
51289;BME280;37372;52.294;5.152;2023-07-31T04:57:21;100635.69;;;15.42;100.00
51289;BME280;37372;52.294;5.152;2023-07-31T04:59:59;100634.03;;;15.41;100.00
51289;BME280;37372;52.294;5.152;2023-07-31T05:02:24;100622.69;;;15.43;100.00
51289;BME280;37372;52.294;5.152;2023-07-31T05:04:59;100618.25;;;15.37;100.00
51289;BME280;37372;52.294;5.152;2023-07-31T05:07:28;100622.44;;;15.39;100.00
51289;BME280;37372;52.294;5.152;2023-07-31T05:10:17;100631.50;;;15.35;100.00
51289;BME280;37372;52.294;5.152;2023-07-31T05:13:01;100626.50;;;15.27;100.00
51289;BME280;37372;52.294;5.152;2023-07-31T05:15:27;100615.69;;;15.25;100.00
51289;BME280;37372;52.294;5.152;2023-07-31T05:18:17;100620.09;;;15.26;100.00
51289;BME280;37372;52.294;5.152;2023-07-31T05:20:43;100615.97;;;15.24;100.00
51289;BME280;37372;52.294;5.152;2023-07-31T05:23:08;100619.28;;;15.21;100.00
51289;BME280;37372;52.294;5.152;2023-07-31T05:25:36;100615.94;;;15.18;100.00
51289;BME280;37372;52.294;5.152;2023-07-31T05:28:02;100619.84;;;15.23;100.00
51289;BME280;37372;52.294;5.152;2023-07-31T05:30:30;100604.63;;;15.20;100.00
51289;BME280;37372;52.294;5.152;2023-07-31T05:32:55;100606.28;;;15.21;100.00
51289;BME280;37372;52.294;5.152;2023-07-31T05:35:20;100603.78;;;15.20;100.00
51289;BME280;37372;52.294;5.152;2023-07-31T05:37:46;100599.66;;;15.22;100.00
51289;BME280;37372;52.294;5.152;2023-07-31T05:40:15;100599.09;;;15.20;100.00
51289;BME280;37372;52.294;5.152;2023-07-31T05:42:40;100600.72;;;15.16;100.00
51289;BME280;37372;52.294;5.152;2023-07-31T05:45:07;100593.56;;;15.20;100.00
51289;BME280;37372;52.294;5.152;2023-07-31T05:47:52;100588.31;;;15.24;100.00
51289;BME280;37372;52.294;5.152;2023-07-31T05:50:17;100586.91;;;15.16;100.00
51289;BME280;37372;52.294;5.152;2023-07-31T05:52:43;100591.06;;;15.18;100.00
51289;BME280;37372;52.294;5.152;2023-07-31T05:55:43;100586.94;;;15.21;100.00
51289;BME280;37372;52.294;5.152;2023-07-31T05:58:09;100582.28;;;15.27;100.00
51289;BME280;37372;52.294;5.152;2023-07-31T06:00:34;100574.25;;;15.25;100.00
51289;BME280;37372;52.294;5.152;2023-07-31T06:03:00;100575.66;;;15.28;100.00
51289;BME280;37372;52.294;5.152;2023-07-31T06:05:25;100582.28;;;15.27;100.00
51289;BME280;37372;52.294;5.152;2023-07-31T06:07:51;100578.66;;;15.26;100.00
51289;BME280;37372;52.294;5.152;2023-07-31T06:10:16;100570.41;;;15.31;100.00
51289;BME280;37372;52.294;5.152;2023-07-31T06:12:42;100568.72;;;15.25;100.00
51289;BME280;37372;52.294;5.152;2023-07-31T06:15:26;100568.22;;;15.33;100.00
51289;BME280;37372;52.294;5.152;2023-07-31T06:17:51;100562.69;;;15.38;100.00
51289;BME280;37372;52.294;5.152;2023-07-31T06:20:17;100560.50;;;15.40;100.00
51289;BME280;37372;52.294;5.152;2023-07-31T06:22:45;100569.91;;;15.39;100.00
51289;BME280;37372;52.294;5.152;2023-07-31T06:25:14;100557.47;;;15.42;100.00
51289;BME280;37372;52.294;5.152;2023-07-31T06:27:47;100559.16;;;15.48;100.00
51289;BME280;37372;52.294;5.152;2023-07-31T06:30:19;100556.34;;;15.43;100.00
51289;BME280;37372;52.294;5.152;2023-07-31T06:32:45;100553.91;;;15.47;100.00
51289;BME280;37372;52.294;5.152;2023-07-31T06:35:20;100548.66;;;15.50;100.00
51289;BME280;37372;52.294;5.152;2023-07-31T06:37:48;100542.28;;;15.50;100.00
51289;BME280;37372;52.294;5.152;2023-07-31T06:40:17;100544.53;;;15.53;100.00
51289;BME280;37372;52.294;5.152;2023-07-31T06:42:43;100547.88;;;15.60;100.00
51289;BME280;37372;52.294;5.152;2023-07-31T06:45:12;100537.69;;;15.65;100.00
51289;BME280;37372;52.294;5.152;2023-07-31T06:47:45;100527.69;;;15.64;100.00
51289;BME280;37372;52.294;5.152;2023-07-31T06:50:35;100524.09;;;15.59;100.00
51289;BME280;37372;52.294;5.152;2023-07-31T06:53:00;100525.47;;;15.61;100.00
51289;BME280;37372;52.294;5.152;2023-07-31T06:55:29;100525.78;;;15.65;100.00
51289;BME280;37372;52.294;5.152;2023-07-31T06:57:55;100532.16;;;15.65;100.00
51289;BME280;37372;52.294;5.152;2023-07-31T07:00:37;100527.44;;;15.71;100.00
51289;BME280;37372;52.294;5.152;2023-07-31T07:03:06;100523.88;;;15.81;100.00
51289;BME280;37372;52.294;5.152;2023-07-31T07:05:31;100533.03;;;15.91;100.00
51289;BME280;37372;52.294;5.152;2023-07-31T07:07:57;100528.31;;;15.97;100.00
51289;BME280;37372;52.294;5.152;2023-07-31T07:10:23;100528.66;;;16.11;100.00
51289;BME280;37372;52.294;5.152;2023-07-31T07:12:48;100524.75;;;16.07;100.00
51289;BME280;37372;52.294;5.152;2023-07-31T07:15:33;100519.78;;;15.98;100.00
51289;BME280;37372;52.294;5.152;2023-07-31T07:18:01;100518.38;;;16.06;100.00
51289;BME280;37372;52.294;5.152;2023-07-31T07:20:36;100522.25;;;16.00;100.00
51289;BME280;37372;52.294;5.152;2023-07-31T07:23:02;100518.13;;;15.97;100.00
51289;BME280;37372;52.294;5.152;2023-07-31T07:25:28;100520.31;;;15.95;100.00
51289;BME280;37372;52.294;5.152;2023-07-31T07:27:56;100516.72;;;16.05;100.00
51289;BME280;37372;52.294;5.152;2023-07-31T07:30:30;100514.81;;;16.11;100.00
51289;BME280;37372;52.294;5.152;2023-07-31T07:32:56;100519.25;;;16.17;100.00
51289;BME280;37372;52.294;5.152;2023-07-31T07:35:21;100511.22;;;16.25;100.00
51289;BME280;37372;52.294;5.152;2023-07-31T07:37:48;100510.38;;;16.30;100.00
51289;BME280;37372;52.294;5.152;2023-07-31T07:40:30;100525.56;;;16.48;100.00
51289;BME280;37372;52.294;5.152;2023-07-31T07:42:58;100508.97;;;16.48;100.00
51289;BME280;37372;52.294;5.152;2023-07-31T07:45:31;100510.09;;;16.52;100.00
51289;BME280;37372;52.294;5.152;2023-07-31T07:47:56;100506.19;;;16.48;100.00
51289;BME280;37372;52.294;5.152;2023-07-31T07:50:31;100505.66;;;16.56;100.00
51289;BME280;37372;52.294;5.152;2023-07-31T07:52:57;100512.84;;;16.62;100.00
51289;BME280;37372;52.294;5.152;2023-07-31T07:55:22;100501.78;;;16.57;100.00
51289;BME280;37372;52.294;5.152;2023-07-31T07:57:48;100495.13;;;16.53;100.00
51289;BME280;37372;52.294;5.152;2023-07-31T08:00:15;100495.94;;;16.59;100.00
51289;BME280;37372;52.294;5.152;2023-07-31T08:02:43;100499.53;;;16.64;100.00
51289;BME280;37372;52.294;5.152;2023-07-31T08:05:08;100506.78;;;16.70;100.00
51289;BME280;37372;52.294;5.152;2023-07-31T08:07:37;100507.03;;;16.74;100.00
51289;BME280;37372;52.294;5.152;2023-07-31T08:10:10;100500.66;;;16.73;100.00
51289;BME280;37372;52.294;5.152;2023-07-31T08:12:35;100494.56;;;16.76;100.00
51289;BME280;37372;52.294;5.152;2023-07-31T08:15:14;100488.19;;;16.81;100.00
51289;BME280;37372;52.294;5.152;2023-07-31T08:18:00;100487.03;;;16.92;100.00
51289;BME280;37372;52.294;5.152;2023-07-31T08:20:30;100490.41;;;16.79;100.00
51289;BME280;37372;52.294;5.152;2023-07-31T08:22:56;100484.31;;;16.77;100.00
51289;BME280;37372;52.294;5.152;2023-07-31T08:25:21;100481.84;;;16.75;100.00
51289;BME280;37372;52.294;5.152;2023-07-31T08:27:53;100481.00;;;16.75;100.00
51289;BME280;37372;52.294;5.152;2023-07-31T08:30:19;100481.25;;;16.73;100.00
51289;BME280;37372;52.294;5.152;2023-07-31T08:32:44;100479.88;;;16.76;100.00
51289;BME280;37372;52.294;5.152;2023-07-31T08:35:23;100479.03;;;16.81;100.00
51289;BME280;37372;52.294;5.152;2023-07-31T08:37:49;100479.84;;;16.86;100.00
51289;BME280;37372;52.294;5.152;2023-07-31T08:40:14;100476.53;;;16.84;100.00
51289;BME280;37372;52.294;5.152;2023-07-31T08:42:48;100478.72;;;16.92;100.00
51289;BME280;37372;52.294;5.152;2023-07-31T08:45:24;100487.00;;;17.02;100.00
51289;BME280;37372;52.294;5.152;2023-07-31T08:47:51;100482.06;;;16.94;100.00
51289;BME280;37372;52.294;5.152;2023-07-31T08:50:20;100479.00;;;16.91;100.00
51289;BME280;37372;52.294;5.152;2023-07-31T08:52:47;100474.28;;;16.96;100.00
51289;BME280;37372;52.294;5.152;2023-07-31T08:55:15;100476.16;;;17.06;100.00
51289;BME280;37372;52.294;5.152;2023-07-31T08:57:42;100475.31;;;17.16;100.00
51289;BME280;37372;52.294;5.152;2023-07-31T09:00:14;100480.53;;;17.32;100.00
51289;BME280;37372;52.294;5.152;2023-07-31T09:03:17;100477.47;;;17.34;100.00
51289;BME280;37372;52.294;5.152;2023-07-31T09:05:55;100478.88;;;17.26;100.00
51289;BME280;37372;52.294;5.152;2023-07-31T09:08:21;100481.06;;;17.35;100.00
51289;BME280;37372;52.294;5.152;2023-07-31T09:10:50;100484.66;;;17.30;100.00
51289;BME280;37372;52.294;5.152;2023-07-31T09:13:15;100480.25;;;17.29;100.00
51289;BME280;37372;52.294;5.152;2023-07-31T09:15:50;100471.34;;;17.32;100.00
51289;BME280;37372;52.294;5.152;2023-07-31T09:18:15;100480.78;;;17.26;100.00
51289;BME280;37372;52.294;5.152;2023-07-31T09:21:00;100478.00;;;17.31;100.00
51289;BME280;37372;52.294;5.152;2023-07-31T09:23:43;100472.47;;;17.31;100.00
51289;BME280;37372;52.294;5.152;2023-07-31T09:26:28;100471.03;;;17.39;100.00
51289;BME280;37372;52.294;5.152;2023-07-31T09:28:54;100474.66;;;17.39;100.00
51289;BME280;37372;52.294;5.152;2023-07-31T09:31:43;100480.44;;;17.43;100.00
51289;BME280;37372;52.294;5.152;2023-07-31T09:34:10;100459.66;;;17.45;100.00
51289;BME280;37372;52.294;5.152;2023-07-31T09:36:46;100469.56;;;17.56;100.00
51289;BME280;37372;52.294;5.152;2023-07-31T09:39:13;100470.34;;;17.62;100.00
51289;BME280;37372;52.294;5.152;2023-07-31T09:41:47;100471.75;;;17.65;100.00
51289;BME280;37372;52.294;5.152;2023-07-31T09:44:13;100460.06;;;17.73;100.00
51289;BME280;37372;52.294;5.152;2023-07-31T09:46:38;100463.97;;;17.72;100.00
51289;BME280;37372;52.294;5.152;2023-07-31T09:49:08;100474.75;;;17.73;100.00
51289;BME280;37372;52.294;5.152;2023-07-31T09:51:38;100464.19;;;17.70;100.00
51289;BME280;37372;52.294;5.152;2023-07-31T09:54:13;100470.84;;;17.79;100.00
51289;BME280;37372;52.294;5.152;2023-07-31T09:56:48;100460.59;;;17.70;100.00
51289;BME280;37372;52.294;5.152;2023-07-31T09:59:20;100459.75;;;17.69;100.00
51289;BME280;37372;52.294;5.152;2023-07-31T10:01:46;100463.38;;;17.70;100.00
51289;BME280;37372;52.294;5.152;2023-07-31T10:04:17;100465.59;;;17.68;100.00
51289;BME280;37372;52.294;5.152;2023-07-31T10:06:47;100458.63;;;17.70;100.00
51289;BME280;37372;52.294;5.152;2023-07-31T10:09:18;100452.81;;;17.77;100.00
51289;BME280;37372;52.294;5.152;2023-07-31T10:11:48;100465.03;;;17.71;100.00
51289;BME280;37372;52.294;5.152;2023-07-31T10:14:20;100453.69;;;17.72;100.00
51289;BME280;37372;52.294;5.152;2023-07-31T10:16:47;100465.81;;;17.81;100.00
51289;BME280;37372;52.294;5.152;2023-07-31T10:19:12;100469.72;;;17.80;100.00
51289;BME280;37372;52.294;5.152;2023-07-31T10:21:38;100462.25;;;17.71;100.00
51289;BME280;37372;52.294;5.152;2023-07-31T10:24:04;100464.78;;;17.72;100.00
51289;BME280;37372;52.294;5.152;2023-07-31T10:26:31;100458.63;;;17.80;100.00
51289;BME280;37372;52.294;5.152;2023-07-31T10:28:58;100458.28;;;17.87;100.00
51289;BME280;37372;52.294;5.152;2023-07-31T10:31:28;100463.19;;;18.00;100.00
51289;BME280;37372;52.294;5.152;2023-07-31T10:34:12;100449.16;;;18.16;100.00
51289;BME280;37372;52.294;5.152;2023-07-31T10:37:29;100452.25;;;18.14;100.00
51289;BME280;37372;52.294;5.152;2023-07-31T10:40:05;100456.50;;;18.01;100.00
51289;BME280;37372;52.294;5.152;2023-07-31T10:42:37;100460.53;;;18.19;100.00
51289;BME280;37372;52.294;5.152;2023-07-31T10:45:10;100460.88;;;18.41;100.00
51289;BME280;37372;52.294;5.152;2023-07-31T10:47:37;100467.63;;;18.35;100.00
51289;BME280;37372;52.294;5.152;2023-07-31T10:50:56;100460.16;;;18.31;100.00
51289;BME280;37372;52.294;5.152;2023-07-31T10:53:22;100462.66;;;18.27;100.00
51289;BME280;37372;52.294;5.152;2023-07-31T10:55:51;100458.41;;;18.06;100.00
51289;BME280;37372;52.294;5.152;2023-07-31T10:58:19;100465.88;;;18.10;100.00
51289;BME280;37372;52.294;5.152;2023-07-31T11:01:02;100454.44;;;18.17;100.00
51289;BME280;37372;52.294;5.152;2023-07-31T11:04:05;100453.03;;;18.20;100.00
51289;BME280;37372;52.294;5.152;2023-07-31T11:06:59;100459.78;;;18.43;100.00
51289;BME280;37372;52.294;5.152;2023-07-31T11:09:29;100456.44;;;18.40;100.00
51289;BME280;37372;52.294;5.152;2023-07-31T11:11:58;100464.72;;;18.46;100.00
51289;BME280;37372;52.294;5.152;2023-07-31T11:17:17;100455.09;;;18.38;100.00
51289;BME280;37372;52.294;5.152;2023-07-31T11:19:45;100457.34;;;18.36;100.00
51289;BME280;37372;52.294;5.152;2023-07-31T11:22:17;100460.72;;;18.28;100.00
51289;BME280;37372;52.294;5.152;2023-07-31T11:24:43;100460.16;;;18.31;100.00
51289;BME280;37372;52.294;5.152;2023-07-31T11:27:09;100451.34;;;18.48;100.00
51289;BME280;37372;52.294;5.152;2023-07-31T11:30:01;100458.13;;;18.65;100.00
51289;BME280;37372;52.294;5.152;2023-07-31T11:32:27;100468.09;;;18.72;100.00
51289;BME280;37372;52.294;5.152;2023-07-31T11:34:56;100461.78;;;18.90;100.00
51289;BME280;37372;52.294;5.152;2023-07-31T11:37:41;100446.09;;;18.99;100.00
51289;BME280;37372;52.294;5.152;2023-07-31T11:40:08;100445.38;;;19.12;100.00
51289;BME280;37372;52.294;5.152;2023-07-31T11:42:35;100448.38;;;19.40;100.00
51289;BME280;37372;52.294;5.152;2023-07-31T11:45:08;100449.19;;;19.40;100.00
51289;BME280;37372;52.294;5.152;2023-07-31T11:47:38;100442.34;;;19.52;100.00
51289;BME280;37372;52.294;5.152;2023-07-31T11:50:04;100432.25;;;19.37;100.00
51289;BME280;37372;52.294;5.152;2023-07-31T11:52:36;100438.19;;;19.30;100.00
51289;BME280;37372;52.294;5.152;2023-07-31T11:55:06;100438.53;;;19.05;100.00
51289;BME280;37372;52.294;5.152;2023-07-31T11:57:37;100439.44;;;18.76;100.00
51289;BME280;37372;52.294;5.152;2023-07-31T12:00:06;100453.19;;;18.62;100.00
51289;BME280;37372;52.294;5.152;2023-07-31T12:02:33;100444.53;;;18.69;100.00
51289;BME280;37372;52.294;5.152;2023-07-31T12:05:06;100445.50;;;18.78;100.00
51289;BME280;37372;52.294;5.152;2023-07-31T12:07:54;100457.56;;;18.92;100.00
51289;BME280;37372;52.294;5.152;2023-07-31T12:13:08;100468.63;;;18.98;100.00
51289;BME280;37372;52.294;5.152;2023-07-31T12:15:41;100458.03;;;19.00;100.00
51289;BME280;37372;52.294;5.152;2023-07-31T12:18:31;100457.94;;;19.10;100.00
51289;BME280;37372;52.294;5.152;2023-07-31T12:21:02;100452.13;;;19.06;100.00
51289;BME280;37372;52.294;5.152;2023-07-31T12:23:34;100452.66;;;19.32;100.00
51289;BME280;37372;52.294;5.152;2023-07-31T12:26:35;100432.53;;;19.59;100.00
51289;BME280;37372;52.294;5.152;2023-07-31T12:29:01;100422.28;;;19.73;100.00
51289;BME280;37372;52.294;5.152;2023-07-31T12:31:29;100415.34;;;19.90;100.00
51289;BME280;37372;52.294;5.152;2023-07-31T12:33:55;100409.84;;;20.04;100.00
51289;BME280;37372;52.294;5.152;2023-07-31T12:36:41;100410.38;;;20.19;100.00
51289;BME280;37372;52.294;5.152;2023-07-31T12:39:30;100415.91;;;20.38;100.00
51289;BME280;37372;52.294;5.152;2023-07-31T12:42:08;100422.22;;;20.11;100.00
51289;BME280;37372;52.294;5.152;2023-07-31T12:44:35;100428.63;;;20.12;100.00
51289;BME280;37372;52.294;5.152;2023-07-31T12:47:01;100417.69;;;20.15;100.00
51289;BME280;37372;52.294;5.152;2023-07-31T12:49:32;100412.13;;;20.15;100.00
51289;BME280;37372;52.294;5.152;2023-07-31T12:51:59;100408.09;;;20.21;100.00
51289;BME280;37372;52.294;5.152;2023-07-31T12:54:28;100410.66;;;20.04;100.00
51289;BME280;37372;52.294;5.152;2023-07-31T12:56:53;100413.09;;;19.92;100.00
51289;BME280;37372;52.294;5.152;2023-07-31T12:59:19;100408.53;;;19.63;100.00
51289;BME280;37372;52.294;5.152;2023-07-31T13:01:45;100419.19;;;19.56;100.00
51289;BME280;37372;52.294;5.152;2023-07-31T13:04:11;100429.16;;;19.57;100.00
51289;BME280;37372;52.294;5.152;2023-07-31T13:06:42;100415.00;;;20.10;100.00
51289;BME280;37372;52.294;5.152;2023-07-31T13:09:08;100420.38;;;20.20;100.00
51289;BME280;37372;52.294;5.152;2023-07-31T13:11:35;100422.16;;;20.49;100.00